sensor_id;sensor_type;location;lat;lon;timestamp;temperature;humidity
326;DHT22;150;52.352;14.058;2023-12-04T00:00:27;-0.40;30.90
326;DHT22;150;52.352;14.058;2023-12-04T00:02:54;-0.40;30.20
326;DHT22;150;52.352;14.058;2023-12-04T00:05:21;-0.40;30.20
326;DHT22;150;52.352;14.058;2023-12-04T00:07:47;-0.50;30.20
326;DHT22;150;52.352;14.058;2023-12-04T00:10:14;-0.40;30.20
326;DHT22;150;52.352;14.058;2023-12-04T00:12:42;-0.50;30.10
326;DHT22;150;52.352;14.058;2023-12-04T00:15:09;-0.50;30.80
326;DHT22;150;52.352;14.058;2023-12-04T00:17:36;-0.50;30.60
326;DHT22;150;52.352;14.058;2023-12-04T00:20:06;-0.50;30.60
326;DHT22;150;52.352;14.058;2023-12-04T00:22:32;-0.50;30.10
326;DHT22;150;52.352;14.058;2023-12-04T00:24:59;-0.60;30.00
326;DHT22;150;52.352;14.058;2023-12-04T00:27:26;-0.60;30.00
326;DHT22;150;52.352;14.058;2023-12-04T00:29:54;-0.60;29.90
326;DHT22;150;52.352;14.058;2023-12-04T00:32:21;-0.70;30.00
326;DHT22;150;52.352;14.058;2023-12-04T00:34:48;-0.70;29.60
326;DHT22;150;52.352;14.058;2023-12-04T00:37:14;-0.80;29.20
326;DHT22;150;52.352;14.058;2023-12-04T00:39:41;-0.90;29.30
326;DHT22;150;52.352;14.058;2023-12-04T00:42:08;-1.00;29.40
326;DHT22;150;52.352;14.058;2023-12-04T00:44:34;-1.10;29.30
326;DHT22;150;52.352;14.058;2023-12-04T00:47:03;-1.10;29.40
326;DHT22;150;52.352;14.058;2023-12-04T00:49:29;-1.20;29.20
326;DHT22;150;52.352;14.058;2023-12-04T00:51:56;-1.30;28.60
326;DHT22;150;52.352;14.058;2023-12-04T00:54:22;-1.30;28.70
326;DHT22;150;52.352;14.058;2023-12-04T00:56:49;-1.40;28.80
326;DHT22;150;52.352;14.058;2023-12-04T00:59:16;-1.50;28.80
326;DHT22;150;52.352;14.058;2023-12-04T01:01:42;-1.50;28.70
326;DHT22;150;52.352;14.058;2023-12-04T01:04:10;-1.60;28.80
326;DHT22;150;52.352;14.058;2023-12-04T01:06:37;-1.60;29.10
326;DHT22;150;52.352;14.058;2023-12-04T01:09:03;-1.70;29.00
326;DHT22;150;52.352;14.058;2023-12-04T01:11:30;-1.70;29.00
326;DHT22;150;52.352;14.058;2023-12-04T01:13:57;-1.80;29.30
326;DHT22;150;52.352;14.058;2023-12-04T01:16:23;-1.80;30.00
326;DHT22;150;52.352;14.058;2023-12-04T01:18:50;-1.70;30.30
326;DHT22;150;52.352;14.058;2023-12-04T01:21:18;-1.70;30.60
326;DHT22;150;52.352;14.058;2023-12-04T01:23:45;-1.70;30.70
326;DHT22;150;52.352;14.058;2023-12-04T01:26:11;-1.70;31.20
326;DHT22;150;52.352;14.058;2023-12-04T01:28:38;-1.70;31.30
326;DHT22;150;52.352;14.058;2023-12-04T01:31:06;-1.60;31.10
326;DHT22;150;52.352;14.058;2023-12-04T01:33:33;-1.60;30.60
326;DHT22;150;52.352;14.058;2023-12-04T01:36:01;-1.60;30.40
326;DHT22;150;52.352;14.058;2023-12-04T01:38:29;-1.70;29.80
326;DHT22;150;52.352;14.058;2023-12-04T01:40:56;-1.70;29.40
326;DHT22;150;52.352;14.058;2023-12-04T01:43:23;-1.80;29.30
326;DHT22;150;52.352;14.058;2023-12-04T01:45:50;-1.80;29.10
326;DHT22;150;52.352;14.058;2023-12-04T01:48:17;-1.90;28.90
326;DHT22;150;52.352;14.058;2023-12-04T01:50:44;-2.00;28.80
326;DHT22;150;52.352;14.058;2023-12-04T01:53:11;-2.10;28.70
326;DHT22;150;52.352;14.058;2023-12-04T01:55:39;-2.10;29.00
326;DHT22;150;52.352;14.058;2023-12-04T01:58:07;-2.20;28.50
326;DHT22;150;52.352;14.058;2023-12-04T02:00:34;-2.20;28.70
326;DHT22;150;52.352;14.058;2023-12-04T02:03:01;-2.30;29.00
326;DHT22;150;52.352;14.058;2023-12-04T02:05:27;-2.30;28.70
326;DHT22;150;52.352;14.058;2023-12-04T02:07:55;-2.30;28.30
326;DHT22;150;52.352;14.058;2023-12-04T02:10:22;-2.40;28.10
326;DHT22;150;52.352;14.058;2023-12-04T02:12:50;-2.40;28.20
326;DHT22;150;52.352;14.058;2023-12-04T02:15:16;-2.40;29.00
326;DHT22;150;52.352;14.058;2023-12-04T02:17:44;-2.40;30.10
326;DHT22;150;52.352;14.058;2023-12-04T02:20:12;-2.40;31.40
326;DHT22;150;52.352;14.058;2023-12-04T02:22:39;-2.40;32.20
326;DHT22;150;52.352;14.058;2023-12-04T02:25:08;-2.30;33.30
326;DHT22;150;52.352;14.058;2023-12-04T02:27:39;-2.30;33.90
326;DHT22;150;52.352;14.058;2023-12-04T02:30:09;-2.20;34.00
326;DHT22;150;52.352;14.058;2023-12-04T02:32:40;-2.10;34.60
326;DHT22;150;52.352;14.058;2023-12-04T02:35:09;-2.10;34.90
326;DHT22;150;52.352;14.058;2023-12-04T02:37:36;-2.00;35.10
326;DHT22;150;52.352;14.058;2023-12-04T02:40:04;-2.00;35.40
326;DHT22;150;52.352;14.058;2023-12-04T02:42:33;-2.00;35.90
326;DHT22;150;52.352;14.058;2023-12-04T02:45:00;-2.10;36.60
326;DHT22;150;52.352;14.058;2023-12-04T02:47:26;-2.00;37.20
326;DHT22;150;52.352;14.058;2023-12-04T02:49:53;-2.00;37.70
326;DHT22;150;52.352;14.058;2023-12-04T02:52:19;-1.90;38.30
326;DHT22;150;52.352;14.058;2023-12-04T02:54:46;-1.90;38.40
326;DHT22;150;52.352;14.058;2023-12-04T02:57:13;-1.70;38.60
326;DHT22;150;52.352;14.058;2023-12-04T02:59:41;-1.60;38.60
326;DHT22;150;52.352;14.058;2023-12-04T03:02:07;-1.60;38.50
326;DHT22;150;52.352;14.058;2023-12-04T03:04:34;-1.60;38.20
326;DHT22;150;52.352;14.058;2023-12-04T03:07:01;-1.50;38.30
326;DHT22;150;52.352;14.058;2023-12-04T03:09:27;-1.50;37.90
326;DHT22;150;52.352;14.058;2023-12-04T03:11:54;-1.50;37.60
326;DHT22;150;52.352;14.058;2023-12-04T03:14:21;-1.50;37.50
326;DHT22;150;52.352;14.058;2023-12-04T03:16:49;-1.40;37.60
326;DHT22;150;52.352;14.058;2023-12-04T03:19:16;-1.40;37.30
326;DHT22;150;52.352;14.058;2023-12-04T03:21:42;-1.40;36.90
326;DHT22;150;52.352;14.058;2023-12-04T03:24:09;-1.40;36.40
326;DHT22;150;52.352;14.058;2023-12-04T03:26:36;-1.40;36.20
326;DHT22;150;52.352;14.058;2023-12-04T03:29:02;-1.40;35.60
326;DHT22;150;52.352;14.058;2023-12-04T03:31:29;-1.40;35.70
326;DHT22;150;52.352;14.058;2023-12-04T03:33:58;-1.40;35.70
326;DHT22;150;52.352;14.058;2023-12-04T03:36:24;-1.50;36.10
326;DHT22;150;52.352;14.058;2023-12-04T03:38:51;-1.40;36.50
326;DHT22;150;52.352;14.058;2023-12-04T03:41:18;-1.50;36.90
326;DHT22;150;52.352;14.058;2023-12-04T03:43:44;-1.60;37.40
326;DHT22;150;52.352;14.058;2023-12-04T03:46:11;-1.60;37.80
326;DHT22;150;52.352;14.058;2023-12-04T03:48:37;-1.70;37.80
326;DHT22;150;52.352;14.058;2023-12-04T03:51:06;-1.70;38.40
326;DHT22;150;52.352;14.058;2023-12-04T03:53:33;-1.70;38.90
326;DHT22;150;52.352;14.058;2023-12-04T03:56:00;-1.60;39.20
326;DHT22;150;52.352;14.058;2023-12-04T03:58:26;-1.50;38.90
326;DHT22;150;52.352;14.058;2023-12-04T04:00:53;-1.50;38.60
326;DHT22;150;52.352;14.058;2023-12-04T04:03:19;-1.40;38.50
326;DHT22;150;52.352;14.058;2023-12-04T04:05:46;-1.30;38.20
326;DHT22;150;52.352;14.058;2023-12-04T04:08:14;-1.30;37.60
326;DHT22;150;52.352;14.058;2023-12-04T04:10:40;-1.30;36.80
326;DHT22;150;52.352;14.058;2023-12-04T04:13:07;-1.30;36.20
326;DHT22;150;52.352;14.058;2023-12-04T04:15:34;-1.30;36.40
326;DHT22;150;52.352;14.058;2023-12-04T04:18:01;-1.30;36.00
326;DHT22;150;52.352;14.058;2023-12-04T04:20:27;-1.30;35.60
326;DHT22;150;52.352;14.058;2023-12-04T04:22:54;-1.40;35.30
326;DHT22;150;52.352;14.058;2023-12-04T04:25:22;-1.40;35.40
326;DHT22;150;52.352;14.058;2023-12-04T04:27:49;-1.40;34.80
326;DHT22;150;52.352;14.058;2023-12-04T04:30:16;-1.40;34.90
326;DHT22;150;52.352;14.058;2023-12-04T04:32:43;-1.40;35.70
326;DHT22;150;52.352;14.058;2023-12-04T04:35:09;-1.40;34.60
326;DHT22;150;52.352;14.058;2023-12-04T04:37:36;-1.40;34.60
326;DHT22;150;52.352;14.058;2023-12-04T04:40:03;-1.40;34.60
326;DHT22;150;52.352;14.058;2023-12-04T04:42:31;-1.40;34.60
326;DHT22;150;52.352;14.058;2023-12-04T04:44:58;-1.40;34.10
326;DHT22;150;52.352;14.058;2023-12-04T04:47:24;-1.40;34.20
326;DHT22;150;52.352;14.058;2023-12-04T04:49:51;-1.30;34.20
326;DHT22;150;52.352;14.058;2023-12-04T04:52:17;-1.40;34.60
326;DHT22;150;52.352;14.058;2023-12-04T04:54:44;-1.40;34.60
326;DHT22;150;52.352;14.058;2023-12-04T04:57:11;-1.40;34.60
326;DHT22;150;52.352;14.058;2023-12-04T04:59:39;-1.30;34.70
326;DHT22;150;52.352;14.058;2023-12-04T05:02:05;-1.30;34.70
326;DHT22;150;52.352;14.058;2023-12-04T05:04:32;-1.30;33.70
326;DHT22;150;52.352;14.058;2023-12-04T05:06:59;-1.40;33.20
326;DHT22;150;52.352;14.058;2023-12-04T05:09:25;-1.50;32.50
326;DHT22;150;52.352;14.058;2023-12-04T05:11:52;-1.60;31.90
326;DHT22;150;52.352;14.058;2023-12-04T05:14:18;-1.70;31.80
326;DHT22;150;52.352;14.058;2023-12-04T05:16:46;-1.80;32.00
326;DHT22;150;52.352;14.058;2023-12-04T05:19:13;-1.90;31.80
326;DHT22;150;52.352;14.058;2023-12-04T05:21:40;-2.00;31.80
326;DHT22;150;52.352;14.058;2023-12-04T05:24:06;-2.00;31.70
326;DHT22;150;52.352;14.058;2023-12-04T05:26:33;-2.10;32.00
326;DHT22;150;52.352;14.058;2023-12-04T05:28:59;-2.10;32.10
326;DHT22;150;52.352;14.058;2023-12-04T05:31:26;-2.10;31.50
326;DHT22;150;52.352;14.058;2023-12-04T05:33:54;-2.20;31.50
326;DHT22;150;52.352;14.058;2023-12-04T05:36:21;-2.10;31.60
326;DHT22;150;52.352;14.058;2023-12-04T05:38:47;-2.20;31.80
326;DHT22;150;52.352;14.058;2023-12-04T05:41:14;-2.20;32.00
326;DHT22;150;52.352;14.058;2023-12-04T05:43:41;-2.20;32.00
326;DHT22;150;52.352;14.058;2023-12-04T05:46:07;-2.20;31.60
326;DHT22;150;52.352;14.058;2023-12-04T05:48:34;-2.30;31.60
326;DHT22;150;52.352;14.058;2023-12-04T05:51:02;-2.30;31.60
326;DHT22;150;52.352;14.058;2023-12-04T05:53:29;-2.30;32.10
326;DHT22;150;52.352;14.058;2023-12-04T05:55:55;-2.40;32.60
326;DHT22;150;52.352;14.058;2023-12-04T05:58:22;-2.30;33.00
326;DHT22;150;52.352;14.058;2023-12-04T06:00:49;-2.20;32.70
326;DHT22;150;52.352;14.058;2023-12-04T06:03:15;-2.20;32.50
326;DHT22;150;52.352;14.058;2023-12-04T06:05:42;-2.20;32.20
326;DHT22;150;52.352;14.058;2023-12-04T06:08:10;-2.20;32.20
326;DHT22;150;52.352;14.058;2023-12-04T06:10:36;-2.20;32.50
326;DHT22;150;52.352;14.058;2023-12-04T06:13:03;-2.20;32.20
326;DHT22;150;52.352;14.058;2023-12-04T06:15:30;-2.20;32.20
326;DHT22;150;52.352;14.058;2023-12-04T06:17:56;-2.20;31.90
326;DHT22;150;52.352;14.058;2023-12-04T06:20:23;-2.20;32.10
326;DHT22;150;52.352;14.058;2023-12-04T06:22:50;-2.30;32.00
326;DHT22;150;52.352;14.058;2023-12-04T06:25:19;-2.20;32.10
326;DHT22;150;52.352;14.058;2023-12-04T06:27:46;-2.30;31.70
326;DHT22;150;52.352;14.058;2023-12-04T06:30:14;-2.20;31.60
326;DHT22;150;52.352;14.058;2023-12-04T06:32:41;-2.30;31.30
326;DHT22;150;52.352;14.058;2023-12-04T06:35:09;-2.40;31.30
326;DHT22;150;52.352;14.058;2023-12-04T06:37:38;-2.40;31.70
326;DHT22;150;52.352;14.058;2023-12-04T06:40:06;-2.60;31.60
326;DHT22;150;52.352;14.058;2023-12-04T06:42:38;-2.60;32.50
326;DHT22;150;52.352;14.058;2023-12-04T06:45:06;-2.60;32.90
326;DHT22;150;52.352;14.058;2023-12-04T06:47:34;-2.70;33.00
326;DHT22;150;52.352;14.058;2023-12-04T06:50:01;-2.60;33.40
326;DHT22;150;52.352;14.058;2023-12-04T06:52:27;-2.70;33.50
326;DHT22;150;52.352;14.058;2023-12-04T06:54:54;-2.70;33.50
326;DHT22;150;52.352;14.058;2023-12-04T06:57:21;-2.70;33.80
326;DHT22;150;52.352;14.058;2023-12-04T06:59:48;-2.60;33.70
326;DHT22;150;52.352;14.058;2023-12-04T07:02:15;-2.60;34.30
326;DHT22;150;52.352;14.058;2023-12-04T07:04:42;-2.50;34.90
326;DHT22;150;52.352;14.058;2023-12-04T07:07:09;-2.40;34.90
326;DHT22;150;52.352;14.058;2023-12-04T07:09:37;-2.30;34.80
326;DHT22;150;52.352;14.058;2023-12-04T07:12:05;-2.10;34.70
326;DHT22;150;52.352;14.058;2023-12-04T07:14:32;-2.10;34.10
326;DHT22;150;52.352;14.058;2023-12-04T07:17:00;-2.10;34.00
326;DHT22;150;52.352;14.058;2023-12-04T07:19:27;-2.00;34.10
326;DHT22;150;52.352;14.058;2023-12-04T07:21:54;-2.00;34.10
326;DHT22;150;52.352;14.058;2023-12-04T07:24:20;-1.90;34.20
326;DHT22;150;52.352;14.058;2023-12-04T07:26:47;-1.80;34.30
326;DHT22;150;52.352;14.058;2023-12-04T07:29:14;-1.80;34.30
326;DHT22;150;52.352;14.058;2023-12-04T07:31:41;-1.80;34.30
326;DHT22;150;52.352;14.058;2023-12-04T07:34:10;-1.70;35.10
326;DHT22;150;52.352;14.058;2023-12-04T07:36:36;-1.70;34.40
326;DHT22;150;52.352;14.058;2023-12-04T07:39:03;-1.60;34.50
326;DHT22;150;52.352;14.058;2023-12-04T07:41:31;-1.50;35.00
326;DHT22;150;52.352;14.058;2023-12-04T07:43:58;-1.50;35.00
326;DHT22;150;52.352;14.058;2023-12-04T07:46:25;-1.30;34.70
326;DHT22;150;52.352;14.058;2023-12-04T07:48:52;-1.30;34.70
326;DHT22;150;52.352;14.058;2023-12-04T07:51:20;-1.20;34.80
326;DHT22;150;52.352;14.058;2023-12-04T07:53:47;-1.10;34.00
326;DHT22;150;52.352;14.058;2023-12-04T07:56:13;-1.10;33.70
326;DHT22;150;52.352;14.058;2023-12-04T07:58:40;-1.10;34.40
326;DHT22;150;52.352;14.058;2023-12-04T08:01:07;-1.00;35.00
326;DHT22;150;52.352;14.058;2023-12-04T08:03:34;-0.90;35.00
326;DHT22;150;52.352;14.058;2023-12-04T08:06:01;-0.90;35.00
326;DHT22;150;52.352;14.058;2023-12-04T08:08:29;-0.80;35.80
326;DHT22;150;52.352;14.058;2023-12-04T08:10:57;-0.70;35.90
326;DHT22;150;52.352;14.058;2023-12-04T08:13:24;-0.60;34.20
326;DHT22;150;52.352;14.058;2023-12-04T08:15:50;-0.50;33.90
326;DHT22;150;52.352;14.058;2023-12-04T08:18:17;-0.60;34.00
326;DHT22;150;52.352;14.058;2023-12-04T08:20:44;-0.50;34.30
326;DHT22;150;52.352;14.058;2023-12-04T08:23:10;-0.50;34.10
326;DHT22;150;52.352;14.058;2023-12-04T08:25:38;-0.40;34.50
326;DHT22;150;52.352;14.058;2023-12-04T08:28:05;-0.40;34.10
326;DHT22;150;52.352;14.058;2023-12-04T08:30:31;-0.40;33.90
326;DHT22;150;52.352;14.058;2023-12-04T08:32:58;-0.40;34.30
326;DHT22;150;52.352;14.058;2023-12-04T08:35:25;-0.40;35.30
326;DHT22;150;52.352;14.058;2023-12-04T08:37:51;-0.30;34.80
326;DHT22;150;52.352;14.058;2023-12-04T08:40:18;-0.30;34.10
326;DHT22;150;52.352;14.058;2023-12-04T08:42:46;-0.20;34.40
326;DHT22;150;52.352;14.058;2023-12-04T08:45:12;-0.20;34.30
326;DHT22;150;52.352;14.058;2023-12-04T08:47:39;-0.10;33.80
326;DHT22;150;52.352;14.058;2023-12-04T08:50:07;0.00;34.00
326;DHT22;150;52.352;14.058;2023-12-04T08:52:34;0.20;34.10
326;DHT22;150;52.352;14.058;2023-12-04T08:55:01;0.30;33.30
326;DHT22;150;52.352;14.058;2023-12-04T08:57:28;0.30;32.60
326;DHT22;150;52.352;14.058;2023-12-04T08:59:55;0.40;32.30
326;DHT22;150;52.352;14.058;2023-12-04T09:02:22;0.40;32.90
326;DHT22;150;52.352;14.058;2023-12-04T09:04:49;0.40;32.50
326;DHT22;150;52.352;14.058;2023-12-04T09:07:15;0.40;32.70
326;DHT22;150;52.352;14.058;2023-12-04T09:09:42;0.50;32.90
326;DHT22;150;52.352;14.058;2023-12-04T09:12:09;0.50;32.80
326;DHT22;150;52.352;14.058;2023-12-04T09:14:36;0.60;32.50
326;DHT22;150;52.352;14.058;2023-12-04T09:17:04;0.70;32.50
326;DHT22;150;52.352;14.058;2023-12-04T09:19:31;0.80;31.90
326;DHT22;150;52.352;14.058;2023-12-04T09:21:57;1.00;32.30
326;DHT22;150;52.352;14.058;2023-12-04T09:24:24;1.10;31.40
326;DHT22;150;52.352;14.058;2023-12-04T09:26:51;1.10;31.50
326;DHT22;150;52.352;14.058;2023-12-04T09:29:17;1.20;31.50
326;DHT22;150;52.352;14.058;2023-12-04T09:31:44;1.20;31.40
326;DHT22;150;52.352;14.058;2023-12-04T09:34:12;1.20;31.50
326;DHT22;150;52.352;14.058;2023-12-04T09:36:39;1.30;31.30
326;DHT22;150;52.352;14.058;2023-12-04T09:39:06;1.30;31.30
326;DHT22;150;52.352;14.058;2023-12-04T09:41:32;1.50;31.60
326;DHT22;150;52.352;14.058;2023-12-04T09:43:59;1.60;30.90
326;DHT22;150;52.352;14.058;2023-12-04T09:46:27;1.60;30.70
326;DHT22;150;52.352;14.058;2023-12-04T09:48:54;1.60;29.40
326;DHT22;150;52.352;14.058;2023-12-04T09:51:23;1.50;30.00
326;DHT22;150;52.352;14.058;2023-12-04T09:53:51;1.50;29.80
326;DHT22;150;52.352;14.058;2023-12-04T09:56:19;1.60;29.80
326;DHT22;150;52.352;14.058;2023-12-04T09:58:50;1.60;30.50
326;DHT22;150;52.352;14.058;2023-12-04T10:01:19;1.60;29.40
326;DHT22;150;52.352;14.058;2023-12-04T10:03:46;1.60;29.90
326;DHT22;150;52.352;14.058;2023-12-04T10:06:16;1.80;29.50
326;DHT22;150;52.352;14.058;2023-12-04T10:08:44;1.80;29.40
326;DHT22;150;52.352;14.058;2023-12-04T10:11:12;1.80;29.20
326;DHT22;150;52.352;14.058;2023-12-04T10:13:40;1.80;29.10
326;DHT22;150;52.352;14.058;2023-12-04T10:16:07;1.90;29.10
326;DHT22;150;52.352;14.058;2023-12-04T10:18:34;1.80;28.80
326;DHT22;150;52.352;14.058;2023-12-04T10:21:01;1.80;29.10
326;DHT22;150;52.352;14.058;2023-12-04T10:23:38;1.80;29.00
326;DHT22;150;52.352;14.058;2023-12-04T10:26:07;1.70;28.90
326;DHT22;150;52.352;14.058;2023-12-04T10:28:34;1.70;28.80
326;DHT22;150;52.352;14.058;2023-12-04T10:31:01;1.80;29.20
326;DHT22;150;52.352;14.058;2023-12-04T10:33:28;1.90;28.70
326;DHT22;150;52.352;14.058;2023-12-04T10:35:56;2.00;28.30
326;DHT22;150;52.352;14.058;2023-12-04T10:38:23;2.10;28.70
326;DHT22;150;52.352;14.058;2023-12-04T10:40:51;2.10;28.50
326;DHT22;150;52.352;14.058;2023-12-04T10:43:20;2.10;27.80
326;DHT22;150;52.352;14.058;2023-12-04T10:45:48;2.10;27.70
326;DHT22;150;52.352;14.058;2023-12-04T10:48:16;2.20;27.90
326;DHT22;150;52.352;14.058;2023-12-04T10:50:44;2.30;27.80
326;DHT22;150;52.352;14.058;2023-12-04T10:53:12;2.40;27.50
326;DHT22;150;52.352;14.058;2023-12-04T10:55:39;2.40;27.30
326;DHT22;150;52.352;14.058;2023-12-04T10:58:08;2.40;26.90
326;DHT22;150;52.352;14.058;2023-12-04T11:00:38;2.40;27.10
326;DHT22;150;52.352;14.058;2023-12-04T11:03:08;2.30;27.00
326;DHT22;150;52.352;14.058;2023-12-04T11:05:37;2.10;27.00
326;DHT22;150;52.352;14.058;2023-12-04T11:08:06;2.10;27.70
326;DHT22;150;52.352;14.058;2023-12-04T11:10:40;2.10;27.70
326;DHT22;150;52.352;14.058;2023-12-04T11:13:13;2.00;28.00
326;DHT22;150;52.352;14.058;2023-12-04T11:15:45;2.00;27.70
326;DHT22;150;52.352;14.058;2023-12-04T11:18:15;2.10;28.20
326;DHT22;150;52.352;14.058;2023-12-04T11:20:48;2.20;28.40
326;DHT22;150;52.352;14.058;2023-12-04T11:23:17;2.30;27.80
326;DHT22;150;52.352;14.058;2023-12-04T11:25:44;2.30;27.80
326;DHT22;150;52.352;14.058;2023-12-04T11:28:13;2.20;27.70
326;DHT22;150;52.352;14.058;2023-12-04T11:30:42;2.10;27.70
326;DHT22;150;52.352;14.058;2023-12-04T11:33:09;2.00;27.90
326;DHT22;150;52.352;14.058;2023-12-04T11:35:38;2.00;28.00
326;DHT22;150;52.352;14.058;2023-12-04T11:38:05;1.80;28.20
326;DHT22;150;52.352;14.058;2023-12-04T11:40:32;1.70;28.50
326;DHT22;150;52.352;14.058;2023-12-04T11:42:59;1.70;28.90
326;DHT22;150;52.352;14.058;2023-12-04T11:45:25;1.70;28.90
326;DHT22;150;52.352;14.058;2023-12-04T11:47:55;1.70;29.00
326;DHT22;150;52.352;14.058;2023-12-04T11:50:22;1.70;28.90
326;DHT22;150;52.352;14.058;2023-12-04T11:52:50;1.80;29.20
326;DHT22;150;52.352;14.058;2023-12-04T11:55:19;1.80;28.90
326;DHT22;150;52.352;14.058;2023-12-04T11:57:50;1.80;29.00
326;DHT22;150;52.352;14.058;2023-12-04T12:00:21;1.80;29.00
326;DHT22;150;52.352;14.058;2023-12-04T12:03:02;1.70;29.10
326;DHT22;150;52.352;14.058;2023-12-04T12:05:32;1.80;29.50
326;DHT22;150;52.352;14.058;2023-12-04T12:08:01;1.90;29.00
326;DHT22;150;52.352;14.058;2023-12-04T12:10:28;2.00;28.60
326;DHT22;150;52.352;14.058;2023-12-04T12:12:55;2.00;28.60
326;DHT22;150;52.352;14.058;2023-12-04T12:15:22;2.10;28.70
326;DHT22;150;52.352;14.058;2023-12-04T12:17:50;2.20;29.10
326;DHT22;150;52.352;14.058;2023-12-04T12:20:18;2.20;28.30
326;DHT22;150;52.352;14.058;2023-12-04T12:22:46;2.30;28.30
326;DHT22;150;52.352;14.058;2023-12-04T12:25:13;2.30;28.10
326;DHT22;150;52.352;14.058;2023-12-04T12:27:40;2.40;27.90
326;DHT22;150;52.352;14.058;2023-12-04T12:30:10;2.40;27.90
326;DHT22;150;52.352;14.058;2023-12-04T12:32:36;2.50;27.90
326;DHT22;150;52.352;14.058;2023-12-04T12:35:03;2.60;28.00
326;DHT22;150;52.352;14.058;2023-12-04T12:37:31;2.60;28.00
326;DHT22;150;52.352;14.058;2023-12-04T12:39:58;2.70;28.10
326;DHT22;150;52.352;14.058;2023-12-04T12:42:26;2.70;28.10
326;DHT22;150;52.352;14.058;2023-12-04T12:44:53;2.70;28.10
326;DHT22;150;52.352;14.058;2023-12-04T12:47:21;2.60;27.70
326;DHT22;150;52.352;14.058;2023-12-04T12:49:48;2.50;27.90
326;DHT22;150;52.352;14.058;2023-12-04T12:52:14;2.40;27.90
326;DHT22;150;52.352;14.058;2023-12-04T12:54:43;2.50;27.90
326;DHT22;150;52.352;14.058;2023-12-04T12:57:11;2.50;28.50
326;DHT22;150;52.352;14.058;2023-12-04T12:59:38;2.50;28.30
326;DHT22;150;52.352;14.058;2023-12-04T13:02:06;2.40;28.30
326;DHT22;150;52.352;14.058;2023-12-04T13:04:36;2.40;28.50
326;DHT22;150;52.352;14.058;2023-12-04T13:07:03;2.40;28.60
326;DHT22;150;52.352;14.058;2023-12-04T13:09:32;2.50;28.60
326;DHT22;150;52.352;14.058;2023-12-04T13:12:00;2.50;28.20
326;DHT22;150;52.352;14.058;2023-12-04T13:14:26;2.50;28.70
326;DHT22;150;52.352;14.058;2023-12-04T13:16:53;2.60;28.60
326;DHT22;150;52.352;14.058;2023-12-04T13:19:21;2.60;28.50
326;DHT22;150;52.352;14.058;2023-12-04T13:21:48;2.60;28.80
326;DHT22;150;52.352;14.058;2023-12-04T13:24:14;2.60;28.70
326;DHT22;150;52.352;14.058;2023-12-04T13:26:41;2.60;28.30
326;DHT22;150;52.352;14.058;2023-12-04T13:29:09;2.40;28.50
326;DHT22;150;52.352;14.058;2023-12-04T13:31:36;2.30;28.50
326;DHT22;150;52.352;14.058;2023-12-04T13:34:03;2.20;28.90
326;DHT22;150;52.352;14.058;2023-12-04T13:36:31;2.20;28.90
326;DHT22;150;52.352;14.058;2023-12-04T13:38:58;2.10;29.30
326;DHT22;150;52.352;14.058;2023-12-04T13:41:25;2.10;29.50
326;DHT22;150;52.352;14.058;2023-12-04T13:44:05;2.10;29.80
326;DHT22;150;52.352;14.058;2023-12-04T13:46:34;2.10;29.70
326;DHT22;150;52.352;14.058;2023-12-04T13:49:01;2.20;29.80
326;DHT22;150;52.352;14.058;2023-12-04T13:51:27;2.20;30.00
326;DHT22;150;52.352;14.058;2023-12-04T13:53:54;2.20;29.90
326;DHT22;150;52.352;14.058;2023-12-04T13:56:28;2.20;30.30
326;DHT22;150;52.352;14.058;2023-12-04T13:59:07;2.10;30.80
326;DHT22;150;52.352;14.058;2023-12-04T14:01:43;2.10;30.90
326;DHT22;150;52.352;14.058;2023-12-04T14:04:10;2.00;31.20
326;DHT22;150;52.352;14.058;2023-12-04T14:06:37;2.10;31.80
326;DHT22;150;52.352;14.058;2023-12-04T14:09:03;2.00;31.70
326;DHT22;150;52.352;14.058;2023-12-04T14:11:35;1.90;32.10
326;DHT22;150;52.352;14.058;2023-12-04T14:14:02;1.80;32.10
326;DHT22;150;52.352;14.058;2023-12-04T14:16:28;1.90;32.70
326;DHT22;150;52.352;14.058;2023-12-04T14:18:56;1.80;32.60
326;DHT22;150;52.352;14.058;2023-12-04T14:21:23;1.70;33.10
326;DHT22;150;52.352;14.058;2023-12-04T14:23:50;1.60;33.40
326;DHT22;150;52.352;14.058;2023-12-04T14:26:16;1.50;34.00
326;DHT22;150;52.352;14.058;2023-12-04T14:28:43;1.50;34.30
326;DHT22;150;52.352;14.058;2023-12-04T14:31:10;1.40;34.60
326;DHT22;150;52.352;14.058;2023-12-04T14:33:36;1.50;34.80
326;DHT22;150;52.352;14.058;2023-12-04T14:36:05;1.50;34.80
326;DHT22;150;52.352;14.058;2023-12-04T14:38:32;1.40;34.70
326;DHT22;150;52.352;14.058;2023-12-04T14:41:00;1.40;34.80
326;DHT22;150;52.352;14.058;2023-12-04T14:43:27;1.40;35.00
326;DHT22;150;52.352;14.058;2023-12-04T14:45:53;1.40;35.00
326;DHT22;150;52.352;14.058;2023-12-04T14:48:20;1.50;34.80
326;DHT22;150;52.352;14.058;2023-12-04T14:50:46;1.50;34.70
326;DHT22;150;52.352;14.058;2023-12-04T14:53:15;1.50;34.60
326;DHT22;150;52.352;14.058;2023-12-04T14:55:53;1.50;34.90
326;DHT22;150;52.352;14.058;2023-12-04T14:58:38;1.50;34.70
326;DHT22;150;52.352;14.058;2023-12-04T15:01:43;1.50;34.60
326;DHT22;150;52.352;14.058;2023-12-04T15:04:39;1.40;34.40
326;DHT22;150;52.352;14.058;2023-12-04T15:07:38;1.30;34.90
326;DHT22;150;52.352;14.058;2023-12-04T15:10:23;1.30;35.10
326;DHT22;150;52.352;14.058;2023-12-04T15:13:13;1.30;35.20
326;DHT22;150;52.352;14.058;2023-12-04T15:16:09;1.30;35.60
326;DHT22;150;52.352;14.058;2023-12-04T15:18:51;1.40;35.00
326;DHT22;150;52.352;14.058;2023-12-04T15:21:47;1.40;35.50
326;DHT22;150;52.352;14.058;2023-12-04T15:24:12;1.30;34.90
326;DHT22;150;52.352;14.058;2023-12-04T15:26:40;1.30;35.10
326;DHT22;150;52.352;14.058;2023-12-04T15:29:06;1.30;35.10
326;DHT22;150;52.352;14.058;2023-12-04T15:31:33;1.20;35.40
326;DHT22;150;52.352;14.058;2023-12-04T15:33:59;1.20;35.50
326;DHT22;150;52.352;14.058;2023-12-04T15:36:25;1.20;35.50
326;DHT22;150;52.352;14.058;2023-12-04T15:38:52;1.10;35.30
326;DHT22;150;52.352;14.058;2023-12-04T15:41:18;1.20;35.40
326;DHT22;150;52.352;14.058;2023-12-04T15:43:47;1.20;35.50
326;DHT22;150;52.352;14.058;2023-12-04T15:46:14;1.10;35.40
326;DHT22;150;52.352;14.058;2023-12-04T15:48:42;1.20;35.80
326;DHT22;150;52.352;14.058;2023-12-04T15:51:08;1.20;35.60
326;DHT22;150;52.352;14.058;2023-12-04T15:53:36;1.20;35.40
326;DHT22;150;52.352;14.058;2023-12-04T15:56:02;1.20;35.40
326;DHT22;150;52.352;14.058;2023-12-04T15:58:30;1.10;35.80
326;DHT22;150;52.352;14.058;2023-12-04T16:00:59;1.10;35.80
326;DHT22;150;52.352;14.058;2023-12-04T16:03:25;1.10;36.20
326;DHT22;150;52.352;14.058;2023-12-04T16:05:52;1.00;37.00
326;DHT22;150;52.352;14.058;2023-12-04T16:08:19;1.10;36.70
326;DHT22;150;52.352;14.058;2023-12-04T16:10:45;1.00;36.30
326;DHT22;150;52.352;14.058;2023-12-04T16:13:12;0.90;36.50
326;DHT22;150;52.352;14.058;2023-12-04T16:15:41;0.80;36.40
326;DHT22;150;52.352;14.058;2023-12-04T16:18:12;0.70;36.30
326;DHT22;150;52.352;14.058;2023-12-04T16:20:39;0.70;36.80
326;DHT22;150;52.352;14.058;2023-12-04T16:23:06;0.70;37.10
326;DHT22;150;52.352;14.058;2023-12-04T16:25:33;0.70;36.90
326;DHT22;150;52.352;14.058;2023-12-04T16:28:00;0.70;36.60